Time;durP1;ratioP1;P1;durP2;ratioP2;P2;SDS_P1;SDS_P2;PMS_P1;PMS_P2;Temp;Humidity;BMP_temperature;BMP_pressure;BME280_temperature;BME280_humidity;BME280_pressure;Samples;Min_cycle;Max_cycle;Signal;HPM_P1;HPM_P2
2023/03/19 00:01:57;;;;;;;;;;;;;;;-142.75;100.00;76680.53;5053112;28;19919;-66
2023/03/19 00:04:23;;;;;;;;;;;;;;;-142.75;100.00;76684.47;5044438;28;20000;-66
2023/03/19 00:06:49;;;;;;;;;;;;;;;-142.75;100.00;76690.38;5045502;28;19979;-64
2023/03/19 00:09:14;;;;;;;;;;;;;;;-142.75;100.00;76684.47;5041437;28;20343;-66
2023/03/19 00:11:40;;;;;;;;;;;;;;;-142.75;100.00;76680.53;5037386;28;19917;-66
2023/03/19 00:14:05;;;;;;;;;;;;;;;-142.75;100.00;76684.47;5038710;28;19925;-66
2023/03/19 00:16:30;;;;;;;;;;;;;;;-142.75;100.00;76682.50;5034504;28;19913;-66
2023/03/19 00:18:56;;;;;;;;;;;;;;;-142.75;100.00;76688.41;5040136;28;19940;-65
2023/03/19 00:21:21;;;;;;;;;;;;;;;-142.75;100.00;76692.34;5039196;28;19913;-68
2023/03/19 00:23:46;;;;;;;;;;;;;;;-142.75;100.00;76696.28;5034206;28;19913;-68
2023/03/19 00:26:12;;;;;;;;;;;;;;;-142.75;100.00;76684.47;5034877;28;19919;-65
2023/03/19 00:28:37;;;;;;;;;;;;;;;-142.75;100.00;76684.47;5035271;28;20296;-65
2023/03/19 00:31:21;;;;;;;;;;;;;;;-142.75;100.00;76670.69;5047642;28;19917;-65
2023/03/19 00:33:46;;;;;;;;;;;;;;;-142.75;100.00;76672.66;5044883;28;21348;-65
2023/03/19 00:36:12;;;;;;;;;;;;;;;-142.75;100.00;76664.78;5042537;28;20030;-64
2023/03/19 00:38:37;;;;;;;;;;;;;;;-142.75;100.00;76676.59;5041693;28;19956;-65
2023/03/19 00:41:04;;;;;;;;;;;;;;;-142.75;100.00;76686.44;5035392;28;19925;-65
2023/03/19 00:43:29;;;;;;;;;;;;;;;-142.75;100.00;76684.47;5040640;28;19920;-65
2023/03/19 00:45:54;;;;;;;;;;;;;;;-142.75;100.00;76688.41;5047029;28;19917;-65
2023/03/19 00:48:20;;;;;;;;;;;;;;;-142.75;100.00;76700.22;5039648;28;19965;-66
2023/03/19 00:50:46;;;;;;;;;;;;;;;-142.75;100.00;76708.09;5037935;28;19917;-65
2023/03/19 00:53:11;;;;;;;;;;;;;;;-142.75;100.00;76692.34;5039975;28;19968;-65
2023/03/19 00:55:36;;;;;;;;;;;;;;;-142.75;100.00;76704.16;5033754;28;19913;-65
2023/03/19 00:58:01;;;;;;;;;;;;;;;-142.75;100.00;76704.16;5033655;28;19917;-65
2023/03/19 01:00:27;;;;;;;;;;;;;;;-142.75;100.00;76715.97;5033570;28;19909;-65
2023/03/19 01:02:52;;;;;;;;;;;;;;;-142.75;100.00;76704.16;5037449;28;19912;-66
2023/03/19 01:05:18;;;;;;;;;;;;;;;-142.75;100.00;76698.25;5033975;28;19999;-65
2023/03/19 01:07:43;;;;;;;;;;;;;;;-142.75;100.00;76708.09;5039641;28;19928;-65
2023/03/19 01:10:09;;;;;;;;;;;;;;;-142.75;100.00;76700.22;5035952;28;19913;-64
2023/03/19 01:12:34;;;;;;;;;;;;;;;-142.75;100.00;76692.34;5036035;28;19909;-64
2023/03/19 01:15:00;;;;;;;;;;;;;;;-142.75;100.00;76692.34;5039786;28;19909;-63
2023/03/19 01:17:25;;;;;;;;;;;;;;;-142.75;100.00;76696.28;5043608;28;19920;-65
2023/03/19 01:19:50;;;;;;;;;;;;;;;-142.75;100.00;76698.25;5039800;28;19909;-65
2023/03/19 01:22:16;;;;;;;;;;;;;;;-142.75;100.00;76696.28;5038190;28;20276;-65
2023/03/19 01:24:41;;;;;;;;;;;;;;;-142.75;100.00;76704.16;5045581;28;20380;-64
2023/03/19 01:27:07;;;;;;;;;;;;;;;-142.75;100.00;76712.03;5044684;28;19909;-66
2023/03/19 01:29:32;;;;;;;;;;;;;;;-142.75;100.00;76723.84;5041064;28;20390;-65
2023/03/19 01:31:57;;;;;;;;;;;;;;;-142.75;100.00;76719.91;5043636;28;19943;-66
2023/03/19 01:34:23;;;;;;;;;;;;;;;-142.75;100.00;76719.91;5040307;28;19956;-66
2023/03/19 01:36:48;;;;;;;;;;;;;;;-142.75;100.00;76712.03;5043371;28;20372;-65
2023/03/19 01:39:13;;;;;;;;;;;;;;;-142.75;100.00;76706.13;5039674;28;20443;-66
2023/03/19 01:41:38;;;;;;;;;;;;;;;-142.75;100.00;76704.16;5033266;28;20249;-68
2023/03/19 01:44:21;;;;;;;;;;;;;;;-142.75;100.00;76710.06;5033186;28;20301;-66
2023/03/19 01:46:47;;;;;;;;;;;;;;;-142.75;100.00;76710.06;5033330;28;19952;-69
2023/03/19 01:49:12;;;;;;;;;;;;;;;-142.75;100.00;76715.97;5044477;28;20467;-66
2023/03/19 01:51:40;;;;;;;;;;;;;;;-142.75;100.00;76712.03;5053011;28;19919;-67
2023/03/19 01:54:08;;;;;;;;;;;;;;;-142.75;100.00;76717.94;5051713;28;20003;-66
2023/03/19 01:56:35;;;;;;;;;;;;;;;-142.75;100.00;76735.66;5051474;28;19916;-66
2023/03/19 01:59:06;;;;;;;;;;;;;;;-142.75;100.00;76745.50;5051225;28;19952;-67
2023/03/19 02:01:34;;;;;;;;;;;;;;;-142.75;100.00;76749.44;5048070;28;19921;-66
2023/03/19 02:04:00;;;;;;;;;;;;;;;-142.75;100.00;76751.41;5041773;28;19979;-66
2023/03/19 02:06:27;;;;;;;;;;;;;;;-142.75;100.00;76761.25;5041961;28;20547;-66
2023/03/19 02:08:52;;;;;;;;;;;;;;;-142.75;100.00;76778.97;5043290;28;20384;-66
2023/03/19 02:11:18;;;;;;;;;;;;;;;-142.75;100.00;76771.09;5041825;28;20008;-65
2023/03/19 02:13:43;;;;;;;;;;;;;;;-142.75;100.00;76775.03;5041772;28;19913;-66
2023/03/19 02:16:09;;;;;;;;;;;;;;;-142.75;100.00;76782.91;5043304;28;20354;-66
2023/03/19 02:18:35;;;;;;;;;;;;;;;-142.75;100.00;76790.78;5041084;28;20343;-65
2023/03/19 02:21:08;;;;;;;;;;;;;;;-142.75;100.00;76775.03;5051374;28;19921;-66
2023/03/19 02:23:46;;;;;;;;;;;;;;;-142.75;100.00;76780.94;5050102;28;19916;-65
2023/03/19 02:26:13;;;;;;;;;;;;;;;-142.75;100.00;76790.78;5048649;28;19964;-64
2023/03/19 02:28:41;;;;;;;;;;;;;;;-142.75;100.00;76788.81;5049722;28;20395;-66
2023/03/19 02:31:06;;;;;;;;;;;;;;;-142.75;100.00;76802.56;5052371;28;19913;-66
2023/03/19 02:33:32;;;;;;;;;;;;;;;-142.75;100.00;76796.69;5052239;28;20376;-66
2023/03/19 02:35:57;;;;;;;;;;;;;;;-142.75;100.00;76806.50;5052207;28;20011;-64
2023/03/19 02:38:24;;;;;;;;;;;;;;;-142.75;100.00;76798.66;5052763;28;19967;-64
2023/03/19 02:40:56;;;;;;;;;;;;;;;-142.75;100.00;76804.53;5052169;28;19913;-66
2023/03/19 02:43:21;;;;;;;;;;;;;;;-142.75;100.00;76810.44;5052114;28;20014;-66
2023/03/19 02:45:47;;;;;;;;;;;;;;;-142.75;100.00;76810.44;5052251;28;20517;-66
2023/03/19 02:48:12;;;;;;;;;;;;;;;-142.75;100.00;76810.44;5051866;28;19916;-66
2023/03/19 02:50:37;;;;;;;;;;;;;;;-142.75;100.00;76824.22;5050767;28;19944;-66
2023/03/19 02:53:02;;;;;;;;;;;;;;;-142.75;100.00;76832.09;5052002;28;20373;-66
2023/03/19 02:55:28;;;;;;;;;;;;;;;-142.75;100.00;76834.06;5052146;28;19928;-66
2023/03/19 02:57:53;;;;;;;;;;;;;;;-142.75;100.00;76845.88;5050799;28;19966;-65
2023/03/19 03:00:19;;;;;;;;;;;;;;;-142.75;100.00;76857.69;5051946;28;19956;-66
2023/03/19 03:02:45;;;;;;;;;;;;;;;-142.75;100.00;76849.81;5051960;28;19921;-65
2023/03/19 03:05:10;;;;;;;;;;;;;;;-142.75;100.00;76845.88;5052073;28;19913;-66
2023/03/19 03:07:36;;;;;;;;;;;;;;;-142.75;100.00;76834.06;5051965;28;20334;-66
2023/03/19 03:10:01;;;;;;;;;;;;;;;-142.75;100.00;76834.06;5051839;28;20350;-66
2023/03/19 03:12:26;;;;;;;;;;;;;;;-142.75;100.00;76820.28;5051715;28;19913;-65
2023/03/19 03:14:52;;;;;;;;;;;;;;;-142.75;100.00;76822.25;5050664;28;19996;-66
2023/03/19 03:17:18;;;;;;;;;;;;;;;-142.75;100.00;76824.22;5051797;28;19913;-66
2023/03/19 03:19:43;;;;;;;;;;;;;;;-142.75;100.00;76839.97;5051838;28;19954;-66
2023/03/19 03:22:08;;;;;;;;;;;;;;;-142.75;100.00;76845.88;5038333;28;19917;-66
2023/03/19 03:24:33;;;;;;;;;;;;;;;-142.75;100.00;76845.88;5031710;28;20311;-66
2023/03/19 03:26:58;;;;;;;;;;;;;;;-142.75;100.00;76865.56;5031804;28;19913;-66
2023/03/19 03:29:24;;;;;;;;;;;;;;;-142.75;100.00;76865.56;5034528;28;20000;-64
2023/03/19 03:31:49;;;;;;;;;;;;;;;-142.75;100.00;76861.63;5035688;28;19913;-66
2023/03/19 03:34:15;;;;;;;;;;;;;;;-142.75;100.00;76881.31;5035372;28;19923;-66
2023/03/19 03:36:40;;;;;;;;;;;;;;;-142.75;100.00;76885.25;5035712;28;19913;-66
2023/03/19 03:39:05;;;;;;;;;;;;;;;-142.75;100.00;76877.38;5035470;28;19917;-66
2023/03/19 03:41:30;;;;;;;;;;;;;;;-142.75;100.00;76901.00;5034258;28;19925;-66
2023/03/19 03:43:56;;;;;;;;;;;;;;;-142.75;100.00;76891.16;5035405;28;19913;-66
2023/03/19 03:46:22;;;;;;;;;;;;;;;-142.75;100.00;76893.13;5035513;28;20396;-66
2023/03/19 03:48:48;;;;;;;;;;;;;;;-142.75;100.00;76891.16;5035147;28;19943;-66
2023/03/19 03:51:14;;;;;;;;;;;;;;;-142.75;100.00;76889.19;5035434;28;19959;-66
2023/03/19 03:53:40;;;;;;;;;;;;;;;-142.75;100.00;76916.75;5035315;28;19917;-66
2023/03/19 03:56:05;;;;;;;;;;;;;;;-142.75;100.00;76899.03;5034020;28;19913;-66
2023/03/19 03:58:30;;;;;;;;;;;;;;;-142.75;100.00;76912.81;5035188;28;19917;-66
2023/03/19 04:00:55;;;;;;;;;;;;;;;-142.75;100.00;76932.50;5035175;28;19920;-66
2023/03/19 04:03:23;;;;;;;;;;;;;;;-142.75;100.00;76950.22;5035072;28;20387;-66
2023/03/19 04:05:48;;;;;;;;;;;;;;;-142.75;100.00;76932.50;5035229;28;19996;-66
2023/03/19 04:08:13;;;;;;;;;;;;;;;-142.75;100.00;76914.78;5034961;28;19964;-66
2023/03/19 04:10:39;;;;;;;;;;;;;;;-142.75;100.00;76906.91;5035022;28;19917;-66
2023/03/19 04:13:05;;;;;;;;;;;;;;;-142.75;100.00;76920.69;5035000;28;19913;-64
2023/03/19 04:15:30;;;;;;;;;;;;;;;-142.75;100.00;76924.63;5035024;28;19920;-66
2023/03/19 04:17:55;;;;;;;;;;;;;;;-142.75;100.00;76926.59;5034840;28;19920;-66
2023/03/19 04:20:22;;;;;;;;;;;;;;;-142.75;100.00;76940.38;5034848;28;19963;-66
2023/03/19 04:22:47;;;;;;;;;;;;;;;-142.75;100.00;76936.44;5034706;28;19989;-66
2023/03/19 04:25:12;;;;;;;;;;;;;;;-142.75;100.00;76952.19;5034813;28;19913;-66
2023/03/19 04:27:38;;;;;;;;;;;;;;;-142.75;100.00;76948.25;5034774;28;20059;-66
2023/03/19 04:30:03;;;;;;;;;;;;;;;-142.75;100.00;76948.25;5034675;28;19917;-66
2023/03/19 04:32:28;;;;;;;;;;;;;;;-142.75;100.00;76938.41;5034363;28;19967;-66
2023/03/19 04:34:53;;;;;;;;;;;;;;;-142.75;100.00;76938.41;5034556;28;20072;-66
2023/03/19 04:37:19;;;;;;;;;;;;;;;-142.75;100.00;76944.31;5034542;28;19917;-66
2023/03/19 04:39:44;;;;;;;;;;;;;;;-142.75;100.00;76944.31;5033227;28;19971;-66
2023/03/19 04:42:10;;;;;;;;;;;;;;;-142.75;100.00;76954.16;5034448;28;19917;-66
2023/03/19 04:44:36;;;;;;;;;;;;;;;-142.75;100.00;76965.97;5034266;28;19917;-66
2023/03/19 04:47:01;;;;;;;;;;;;;;;-142.75;100.00;76999.44;5034446;28;19952;-66
2023/03/19 04:49:27;;;;;;;;;;;;;;;-142.75;100.00;76995.50;5034289;28;19960;-66
2023/03/19 04:51:52;;;;;;;;;;;;;;;-142.75;100.00;76987.63;5034234;28;19960;-66
2023/03/19 04:54:17;;;;;;;;;;;;;;;-142.75;100.00;76993.53;5032883;28;19913;-66
2023/03/19 04:56:42;;;;;;;;;;;;;;;-142.75;100.00;76999.44;5034321;28;19913;-66
2023/03/19 04:59:09;;;;;;;;;;;;;;;-142.75;100.00;77007.31;5033925;28;19969;-65
2023/03/19 05:01:35;;;;;;;;;;;;;;;-142.75;100.00;77013.22;5034051;28;20381;-66
2023/03/19 05:04:01;;;;;;;;;;;;;;;-142.75;100.00;77046.69;5034115;28;19925;-66
2023/03/19 05:06:26;;;;;;;;;;;;;;;-142.75;100.00;77040.78;5032949;28;19913;-65
2023/03/19 05:08:51;;;;;;;;;;;;;;;-142.75;100.00;77050.63;5032720;28;20375;-66
2023/03/19 05:11:16;;;;;;;;;;;;;;;-142.75;100.00;77046.69;5033932;28;19913;-66
2023/03/19 05:13:41;;;;;;;;;;;;;;;-142.75;100.00;77054.56;5033850;28;19920;-66
2023/03/19 05:16:08;;;;;;;;;;;;;;;-142.75;100.00;77058.50;5033867;28;19920;-66
2023/03/19 05:18:33;;;;;;;;;;;;;;;-142.75;100.00;77050.63;5033669;28;19918;-66
2023/03/19 05:20:58;;;;;;;;;;;;;;;-142.75;100.00;77052.59;5033678;28;19920;-66
2023/03/19 05:23:23;;;;;;;;;;;;;;;-142.75;100.00;77056.53;5032147;28;19921;-66
2023/03/19 05:25:49;;;;;;;;;;;;;;;-142.75;100.00;77070.31;5033618;28;19913;-66
2023/03/19 05:28:14;;;;;;;;;;;;;;;-142.75;100.00;77078.19;5032247;28;19913;-66
2023/03/19 05:30:40;;;;;;;;;;;;;;;-142.75;100.00;77066.38;5033504;28;19959;-66
2023/03/19 05:33:05;;;;;;;;;;;;;;;-142.75;100.00;77068.34;5033421;28;19924;-66
2023/03/19 05:35:30;;;;;;;;;;;;;;;-142.75;100.00;77046.69;5033408;28;19920;-66
2023/03/19 05:37:56;;;;;;;;;;;;;;;-142.75;100.00;77038.81;5031837;28;20019;-66
2023/03/19 05:40:22;;;;;;;;;;;;;;;-142.75;100.00;77046.69;5033266;28;19913;-66
2023/03/19 05:42:47;;;;;;;;;;;;;;;-142.75;100.00;77048.66;5031968;28;19914;-66
2023/03/19 05:45:13;;;;;;;;;;;;;;;-142.75;100.00;77050.63;5033310;28;19920;-66
2023/03/19 05:47:38;;;;;;;;;;;;;;;-142.75;100.00;77044.72;5033184;28;20435;-66
2023/03/19 05:50:05;;;;;;;;;;;;;;;-142.75;100.00;77056.53;5033256;28;19924;-65
2023/03/19 05:52:30;;;;;;;;;;;;;;;-142.75;100.00;77056.53;5032673;28;19913;-66
2023/03/19 05:54:56;;;;;;;;;;;;;;;-142.75;100.00;77064.41;5033170;28;19920;-66
2023/03/19 05:57:21;;;;;;;;;;;;;;;-142.75;100.00;77082.13;5031730;28;19913;-66
2023/03/19 05:59:46;;;;;;;;;;;;;;;-142.75;100.00;77088.03;5033014;28;19975;-66
2023/03/19 06:02:11;;;;;;;;;;;;;;;-142.75;100.00;77070.31;5032962;28;20335;-66
2023/03/19 06:04:37;;;;;;;;;;;;;;;-142.75;100.00;77070.31;5032793;28;20362;-65
2023/03/19 06:07:03;;;;;;;;;;;;;;;-142.75;100.00;77072.28;5031593;28;19913;-66
2023/03/19 06:09:28;;;;;;;;;;;;;;;-142.75;100.00;77078.19;5032884;28;20004;-66
2023/03/19 06:11:53;;;;;;;;;;;;;;;-142.75;100.00;77097.88;5032786;28;19909;-66
2023/03/19 06:14:18;;;;;;;;;;;;;;;-142.75;100.00;77113.63;5031402;28;19973;-65
2023/03/19 06:16:44;;;;;;;;;;;;;;;-142.75;100.00;77117.56;5032908;28;20376;-66
2023/03/19 06:19:09;;;;;;;;;;;;;;;-142.75;100.00;77125.44;5032666;28;19913;-66
2023/03/19 06:21:34;;;;;;;;;;;;;;;-142.75;100.00;77137.25;5032538;28;19909;-66
2023/03/19 06:24:00;;;;;;;;;;;;;;;-142.75;100.00;77135.28;5032596;28;19909;-66
2023/03/19 06:26:25;;;;;;;;;;;;;;;-142.75;100.00;77127.41;5032738;28;20008;-66
2023/03/19 06:28:50;;;;;;;;;;;;;;;-142.75;100.00;77141.19;5032505;28;20475;-66
2023/03/19 06:31:16;;;;;;;;;;;;;;;-142.75;100.00;77137.25;5032488;28;19908;-66
2023/03/19 06:33:41;;;;;;;;;;;;;;;-142.75;100.00;77123.47;5032373;28;19995;-65
2023/03/19 06:36:07;;;;;;;;;;;;;;;-142.75;100.00;77117.56;5032439;28;20011;-66
2023/03/19 06:38:32;;;;;;;;;;;;;;;-142.75;100.00;77127.41;5047125;28;20008;-66
2023/03/19 06:40:57;;;;;;;;;;;;;;;-142.75;100.00;77109.69;5052232;28;19962;-66
2023/03/19 06:43:23;;;;;;;;;;;;;;;-142.75;100.00;77121.50;5052180;28;19913;-66
2023/03/19 06:45:48;;;;;;;;;;;;;;;-142.75;100.00;77125.44;5052375;28;19909;-66
2023/03/19 06:48:14;;;;;;;;;;;;;;;-142.75;100.00;77121.50;5052060;28;19913;-66
2023/03/19 06:50:40;;;;;;;;;;;;;;;-142.75;100.00;77113.63;5051960;28;19909;-63
2023/03/19 06:53:05;;;;;;;;;;;;;;;-142.75;100.00;77115.59;5051971;28;19938;-66
2023/03/19 06:55:30;;;;;;;;;;;;;;;-142.75;100.00;77115.59;5052053;28;19959;-66
2023/03/19 06:57:55;;;;;;;;;;;;;;;-142.75;100.00;77101.81;5051897;28;19933;-65
2023/03/19 07:00:21;;;;;;;;;;;;;;;-142.75;100.00;77115.59;5067431;28;19932;-66
2023/03/19 07:02:46;;;;;;;;;;;;;;;-142.75;100.00;77117.56;5051242;28;20152;-66
2023/03/19 07:05:12;;;;;;;;;;;;;;;-142.75;100.00;77109.69;5052044;28;19909;-66
2023/03/19 07:07:37;;;;;;;;;;;;;;;-142.75;100.00;77119.53;5051959;28;20058;-66
2023/03/19 07:10:02;;;;;;;;;;;;;;;-142.75;100.00;77125.44;5052025;28;19962;-66
2023/03/19 07:12:28;;;;;;;;;;;;;;;-142.75;100.00;77099.84;5051581;28;19909;-64
2023/03/19 07:14:54;;;;;;;;;;;;;;;-142.75;100.00;77135.28;5052011;28;20372;-66
2023/03/19 07:17:20;;;;;;;;;;;;;;;-142.75;100.00;77115.59;5052025;28;19913;-66
2023/03/19 07:19:45;;;;;;;;;;;;;;;-142.75;100.00;77131.34;5051910;28;19958;-65
2023/03/19 07:22:10;;;;;;;;;;;;;;;-142.75;100.00;77105.75;5051765;28;19913;-66
2023/03/19 07:24:35;;;;;;;;;;;;;;;-142.75;100.00;77101.81;5051558;28;19909;-66
2023/03/19 07:27:01;;;;;;;;;;;;;;;-142.75;100.00;77105.75;5051816;28;20408;-66
2023/03/19 07:29:27;;;;;;;;;;;;;;;-142.75;100.00;77097.88;5051809;28;19912;-66
2023/03/19 07:31:52;;;;;;;;;;;;;;;-142.75;100.00;77105.75;5051691;28;20327;-66
2023/03/19 07:34:17;;;;;;;;;;;;;;;-142.75;100.00;77103.78;5051643;28;20446;-66
2023/03/19 07:36:42;;;;;;;;;;;;;;;-142.75;100.00;77113.63;5067102;28;19971;-66
2023/03/19 07:39:07;;;;;;;;;;;;;;;-142.75;100.00;77117.56;5051615;28;20388;-66
2023/03/19 07:41:33;;;;;;;;;;;;;;;-142.75;100.00;77117.56;5051628;28;19908;-66
2023/03/19 07:43:58;;;;;;;;;;;;;;;-142.75;100.00;77125.44;5051484;28;19915;-66
2023/03/19 07:46:23;;;;;;;;;;;;;;;-142.75;100.00;77105.75;5051720;28;19915;-66
2023/03/19 07:48:48;;;;;;;;;;;;;;;-142.75;100.00;77111.66;5051529;28;19919;-66
2023/03/19 07:51:14;;;;;;;;;;;;;;;-142.75;100.00;77115.59;5066725;28;19962;-66
2023/03/19 07:53:39;;;;;;;;;;;;;;;-142.75;100.00;77107.72;5051518;28;19912;-66
2023/03/19 07:56:04;;;;;;;;;;;;;;;-142.75;100.00;77109.69;5051492;28;19963;-65
2023/03/19 07:58:30;;;;;;;;;;;;;;;-142.75;100.00;77107.72;5051338;28;19912;-66
2023/03/19 08:00:55;;;;;;;;;;;;;;;-142.75;100.00;77097.88;5066841;28;19913;-66
2023/03/19 08:03:20;;;;;;;;;;;;;;;-142.75;100.00;77121.50;5066748;28;19913;-66
2023/03/19 08:05:48;;;;;;;;;;;;;;;-142.75;100.00;77125.44;5051311;28;20038;-66
2023/03/19 08:08:14;;;;;;;;;;;;;;;-142.75;100.00;77115.59;5066686;28;19917;-66
2023/03/19 08:10:39;;;;;;;;;;;;;;;-142.75;100.00;77125.44;5051282;28;20284;-66
2023/03/19 08:13:04;;;;;;;;;;;;;;;-142.75;100.00;77099.84;5051337;28;19912;-66
2023/03/19 08:15:30;;;;;;;;;;;;;;;-142.75;100.00;77117.56;5069592;28;19908;-65
2023/03/19 08:18:02;;;;;;;;;;;;;;;-142.75;100.00;77117.56;5054904;28;19979;-65
2023/03/19 08:20:27;;;;;;;;;;;;;;;-142.75;100.00;77090.00;5070338;28;19908;-65
2023/03/19 08:22:53;;;;;;;;;;;;;;;-142.75;100.00;77074.25;5054623;28;20051;-65
2023/03/19 08:25:19;;;;;;;;;;;;;;;-142.75;100.00;77097.88;5054917;28;20066;-65
2023/03/19 08:27:44;;;;;;;;;;;;;;;-142.75;100.00;77097.88;5054678;28;19915;-65
2023/03/19 08:30:10;;;;;;;;;;;;;;;-142.75;100.00;77076.22;5054645;28;19909;-65
2023/03/19 08:32:35;;;;;;;;;;;;;;;-142.75;100.00;77064.41;5054569;28;19920;-65
2023/03/19 08:35:01;;;;;;;;;;;;;;;-142.75;100.00;77090.00;5054635;28;19915;-65
2023/03/19 08:37:26;;;;;;;;;;;;;;;-142.75;100.00;77086.06;5055025;28;20283;-66
2023/03/19 08:39:52;;;;;;;;;;;;;;;-142.75;100.00;77078.19;5054505;28;19908;-66
2023/03/19 08:42:17;;;;;;;;;;;;;;;-142.75;100.00;77076.22;5054453;28;19916;-66
2023/03/19 08:44:43;;;;;;;;;;;;;;;-142.75;100.00;77070.31;5054418;28;20261;-66
2023/03/19 08:47:08;;;;;;;;;;;;;;;-142.75;100.00;77086.06;5054466;28;19908;-66
2023/03/19 08:49:33;;;;;;;;;;;;;;;-142.75;100.00;77090.00;5054248;28;19913;-64
2023/03/19 08:51:58;;;;;;;;;;;;;;;-142.75;100.00;77097.88;5054299;28;19908;-67
2023/03/19 08:54:24;;;;;;;;;;;;;;;-142.75;100.00;77072.28;5054093;28;19970;-66
2023/03/19 08:56:49;;;;;;;;;;;;;;;-142.75;100.00;77066.38;5054337;28;19908;-66
2023/03/19 08:59:15;;;;;;;;;;;;;;;-142.75;100.00;77054.56;5054076;28;20415;-66
2023/03/19 09:01:40;;;;;;;;;;;;;;;-142.75;100.00;77038.81;5054182;28;19909;-65
2023/03/19 09:04:06;;;;;;;;;;;;;;;-142.75;100.00;77036.84;5053957;28;20055;-66
2023/03/19 09:06:31;;;;;;;;;;;;;;;-142.75;100.00;77048.66;5053905;28;19920;-66
2023/03/19 09:08:56;;;;;;;;;;;;;;;-142.75;100.00;77038.81;5053819;28;19913;-65
2023/03/19 09:11:22;;;;;;;;;;;;;;;-142.75;100.00;77030.94;5053814;28;19909;-68
2023/03/19 09:13:47;;;;;;;;;;;;;;;-142.75;100.00;77019.13;5053946;28;19917;-66
2023/03/19 09:16:12;;;;;;;;;;;;;;;-142.75;100.00;77019.13;5053741;28;20022;-66
2023/03/19 09:18:38;;;;;;;;;;;;;;;-142.75;100.00;77017.16;5053562;28;20373;-66
2023/03/19 09:21:03;;;;;;;;;;;;;;;-142.75;100.00;77023.06;5053532;28;19975;-65
2023/03/19 09:23:28;;;;;;;;;;;;;;;-142.75;100.00;77017.16;5053445;28;19955;-67
2023/03/19 09:25:54;;;;;;;;;;;;;;;-142.75;100.00;77001.41;5068102;28;19913;-66
2023/03/19 09:28:20;;;;;;;;;;;;;;;-142.75;100.00;77003.38;5053282;28;19913;-67
2023/03/19 09:30:46;;;;;;;;;;;;;;;-142.75;100.00;76995.50;5053327;28;20322;-66
2023/03/19 09:33:13;;;;;;;;;;;;;;;-142.75;100.00;77009.28;5053536;28;19920;-67
2023/03/19 09:35:39;;;;;;;;;;;;;;;-142.75;100.00;77017.16;5068760;28;19924;-66
2023/03/19 09:38:04;;;;;;;;;;;;;;;-142.75;100.00;77007.31;5053264;28;20058;-66
2023/03/19 09:40:35;;;;;;;;;;;;;;;-142.75;100.00;77011.25;5053332;28;19920;-66
2023/03/19 09:43:22;;;;;;;;;;;;;;;-142.75;100.00;77017.16;5052545;28;20400;-66
2023/03/19 09:45:48;;;;;;;;;;;;;;;-142.75;100.00;77034.88;5011730;28;20330;-67
2023/03/19 09:48:17;;;;;;;;;;;;;;;-142.75;100.00;77050.63;5068372;28;19966;-66
2023/03/19 09:50:42;;;;;;;;;;;;;;;-142.75;100.00;77046.69;5052984;28;19913;-67
2023/03/19 09:53:27;;;;;;;;;;;;;;;-142.75;100.00;77050.63;5052965;28;20426;-67
2023/03/19 09:55:53;;;;;;;;;;;;;;;-142.75;100.00;77046.69;5032639;28;19921;-68
2023/03/19 09:58:20;;;;;;;;;;;;;;;-142.75;100.00;77052.59;5038070;28;20319;-69
2023/03/19 10:00:47;;;;;;;;;;;;;;;-142.75;100.00;77074.25;5041752;28;19924;-66
2023/03/19 10:03:25;;;;;;;;;;;;;;;-142.75;100.00;77084.09;5049797;28;19920;-67
2023/03/19 10:05:50;;;;;;;;;;;;;;;-142.75;100.00;77070.31;5052928;28;19951;-65
2023/03/19 10:08:18;;;;;;;;;;;;;;;-142.75;100.00;77062.44;5052748;28;19947;-66
2023/03/19 10:10:47;;;;;;;;;;;;;;;-142.75;100.00;77068.34;5040903;28;19917;-67
2023/03/19 10:13:12;;;;;;;;;;;;;;;-142.75;100.00;77068.34;5043226;28;19943;-66
2023/03/19 10:15:38;;;;;;;;;;;;;;;-142.75;100.00;77068.34;5042228;28;19917;-67
2023/03/19 10:18:05;;;;;;;;;;;;;;;-142.75;100.00;77088.03;5040042;28;19921;-67
2023/03/19 10:20:50;;;;;;;;;;;;;;;-142.75;100.00;77086.06;5039148;28;19956;-67
2023/03/19 10:23:18;;;;;;;;;;;;;;;-142.75;100.00;77076.22;5039761;28;20027;-68
2023/03/19 10:25:44;;;;;;;;;;;;;;;-142.75;100.00;77066.38;5032407;28;19916;-67
2023/03/19 10:28:18;;;;;;;;;;;;;;;-142.75;100.00;77066.38;5038566;28;19924;-66
2023/03/19 10:30:50;;;;;;;;;;;;;;;-142.75;100.00;77082.13;5042944;28;19909;-66
2023/03/19 10:33:15;;;;;;;;;;;;;;;-142.75;100.00;77097.88;5040264;28;19974;-67
2023/03/19 10:35:43;;;;;;;;;;;;;;;-142.75;100.00;77084.09;5037512;28;19960;-68
2023/03/19 10:38:19;;;;;;;;;;;;;;;-142.75;100.00;77101.81;5038790;28;20595;-67
2023/03/19 10:40:50;;;;;;;;;;;;;;;-142.75;100.00;77091.97;5052305;28;20316;-68
2023/03/19 10:43:23;;;;;;;;;;;;;;;-142.75;100.00;77097.88;5052255;28;20414;-67
2023/03/19 10:45:48;;;;;;;;;;;;;;;-142.75;100.00;77103.78;5052208;28;19908;-68
2023/03/19 10:48:16;;;;;;;;;;;;;;;-142.75;100.00;77095.91;5051844;28;19925;-67
2023/03/19 10:50:49;;;;;;;;;;;;;;;-142.75;100.00;77099.84;5050838;28;19913;-67
2023/03/19 10:53:14;;;;;;;;;;;;;;;-142.75;100.00;77078.19;5051959;28;20021;-66
2023/03/19 10:55:56;;;;;;;;;;;;;;;-142.75;100.00;77078.19;5045599;28;19976;-69
2023/03/19 10:58:24;;;;;;;;;;;;;;;-142.75;100.00;77076.22;5046942;28;19939;-67
2023/03/19 11:00:55;;;;;;;;;;;;;;;-142.75;100.00;77078.19;5034404;28;19913;-68
2023/03/19 11:03:32;;;;;;;;;;;;;;;-142.75;100.00;77090.00;5030707;28;19913;-67
2023/03/19 11:06:16;;;;;;;;;;;;;;;-142.75;100.00;77097.88;5030840;28;20353;-67
2023/03/19 11:08:41;;;;;;;;;;;;;;;-142.75;100.00;77107.72;5031955;28;19913;-67
2023/03/19 11:11:21;;;;;;;;;;;;;;;-142.75;100.00;77097.88;5030562;28;19963;-67
2023/03/19 11:13:46;;;;;;;;;;;;;;;-142.75;100.00;77090.00;5032988;28;19924;-67
2023/03/19 11:16:12;;;;;;;;;;;;;;;-142.75;100.00;77103.78;5042503;28;20304;-67
2023/03/19 11:18:38;;;;;;;;;;;;;;;-142.75;100.00;77101.81;5039286;28;20368;-68
2023/03/19 11:21:08;;;;;;;;;;;;;;;-142.75;100.00;77097.88;5041185;28;20008;-68
2023/03/19 11:23:38;;;;;;;;;;;;;;;-142.75;100.00;77086.06;5042435;28;20015;-68
2023/03/19 11:26:04;;;;;;;;;;;;;;;-142.75;100.00;77078.19;5041868;28;19917;-68
2023/03/19 11:28:32;;;;;;;;;;;;;;;-142.75;100.00;77058.50;5041805;28;19966;-68
2023/03/19 11:31:01;;;;;;;;;;;;;;;-142.75;100.00;77058.50;5034377;28;19913;-68
2023/03/19 11:33:37;;;;;;;;;;;;;;;-142.75;100.00;77046.69;5031655;28;20016;-67
2023/03/19 11:36:05;;;;;;;;;;;;;;;-142.75;100.00;77040.78;5031736;28;19913;-68
2023/03/19 11:38:47;;;;;;;;;;;;;;;-142.75;100.00;77023.06;5035695;28;19990;-68
2023/03/19 11:41:33;;;;;;;;;;;;;;;-142.75;100.00;77011.25;5047734;28;20281;-68
2023/03/19 11:44:00;;;;;;;;;;;;;;;-142.75;100.00;76999.44;5041087;28;19917;-69
2023/03/19 11:46:33;;;;;;;;;;;;;;;-142.75;100.00;77030.94;5043140;28;20409;-67
2023/03/19 11:49:17;;;;;;;;;;;;;;;-142.75;100.00;77003.38;5042184;28;19945;-68
2023/03/19 11:51:42;;;;;;;;;;;;;;;-142.75;100.00;77070.31;5042617;28;20283;-67
2023/03/19 11:54:16;;;;;;;;;;;;;;;-142.75;100.00;77062.44;5042286;28;19993;-68
2023/03/19 11:56:41;;;;;;;;;;;;;;;-142.75;100.00;77019.13;5046516;28;19909;-67
2023/03/19 11:59:16;;;;;;;;;;;;;;;-142.75;100.00;77019.13;5046583;28;19919;-67
2023/03/19 12:01:53;;;;;;;;;;;;;;;-142.75;100.00;77034.88;5044188;28;19925;-67
2023/03/19 12:04:21;;;;;;;;;;;;;;;-142.75;100.00;77027.00;5045499;28;19952;-67
2023/03/19 12:06:49;;;;;;;;;;;;;;;-142.75;100.00;77042.75;5044641;28;19909;-67
2023/03/19 12:09:26;;;;;;;;;;;;;;;-142.75;100.00;77030.94;5042316;28;19925;-67
2023/03/19 12:12:18;;;;;;;;;;;;;;;-142.75;100.00;77017.16;5042025;28;19913;-68
2023/03/19 12:14:46;;;;;;;;;;;;;;;-142.75;100.00;77038.81;5013069;28;19909;-66
2023/03/19 12:17:23;;;;;;;;;;;;;;;-142.75;100.00;77009.28;5042261;28;19971;-66